sensor_id;sensor_type;location;lat;lon;timestamp;pressure;altitude;pressure_sealevel;temperature;humidity
61939;BME280;47897;50.322;18.892;2022-10-28T00:01:18;57752.45;;;-145.38;77.35
61939;BME280;47897;50.322;18.892;2022-10-28T00:03:47;57786.01;;;-145.38;77.45
61939;BME280;47897;50.322;18.892;2022-10-28T00:06:16;57778.36;;;-145.38;77.38
61939;BME280;47897;50.322;18.892;2022-10-28T00:08:42;57776.24;;;-145.38;77.37
61939;BME280;47897;50.322;18.892;2022-10-28T00:13:42;57786.86;;;-145.38;77.51
61939;BME280;47897;50.322;18.892;2022-10-28T00:16:15;57774.11;;;-145.38;77.66
61939;BME280;47897;50.322;18.892;2022-10-28T00:18:41;57784.74;;;-145.38;78.07
61939;BME280;47897;50.322;18.892;2022-10-28T00:21:11;57788.56;;;-145.38;78.19
61939;BME280;47897;50.322;18.892;2022-10-28T00:23:37;57780.49;;;-145.38;78.45
61939;BME280;47897;50.322;18.892;2022-10-28T00:26:05;57786.44;;;-145.38;78.65
61939;BME280;47897;50.322;18.892;2022-10-28T00:28:31;57791.54;;;-145.38;78.39
61939;BME280;47897;50.322;18.892;2022-10-28T00:31:02;57793.24;;;-145.38;77.80
61939;BME280;47897;50.322;18.892;2022-10-28T00:33:29;57776.24;;;-145.38;78.33
61939;BME280;47897;50.322;18.892;2022-10-28T00:35:54;57768.59;;;-145.38;78.64
61939;BME280;47897;50.322;18.892;2022-10-28T00:38:20;57768.16;;;-145.38;79.01
61939;BME280;47897;50.322;18.892;2022-10-28T00:40:45;57785.16;;;-145.38;79.24
61939;BME280;47897;50.322;18.892;2022-10-28T00:43:11;57762.21;;;-145.38;79.31
61939;BME280;47897;50.322;18.892;2022-10-28T00:45:37;57761.79;;;-145.38;79.48
61939;BME280;47897;50.322;18.892;2022-10-28T00:48:05;57772.41;;;-145.38;79.42
61939;BME280;47897;50.322;18.892;2022-10-28T00:50:42;57777.95;;;-145.38;79.48
61939;BME280;47897;50.322;18.892;2022-10-28T00:53:21;57777.52;;;-145.38;79.30
61939;BME280;47897;50.322;18.892;2022-10-28T00:55:48;57758.81;;;-145.38;79.38
61939;BME280;47897;50.322;18.892;2022-10-28T00:58:16;57769.45;;;-145.38;79.39
61939;BME280;47897;50.322;18.892;2022-10-28T01:00:43;57770.71;;;-145.38;79.36
61939;BME280;47897;50.322;18.892;2022-10-28T01:03:09;57762.64;;;-145.38;79.63
61939;BME280;47897;50.322;18.892;2022-10-28T01:05:37;57783.46;;;-145.38;79.89
61939;BME280;47897;50.322;18.892;2022-10-28T01:08:05;57766.46;;;-145.38;80.18
61939;BME280;47897;50.322;18.892;2022-10-28T01:10:57;57781.34;;;-145.38;80.85
61939;BME280;47897;50.322;18.892;2022-10-28T01:16:30;57776.24;;;-145.38;82.27
61939;BME280;47897;50.322;18.892;2022-10-28T01:34:45;57774.11;;;-145.38;82.89
61939;BME280;47897;50.322;18.892;2022-10-28T01:45:32;57781.76;;;-145.38;83.32
61939;BME280;47897;50.322;18.892;2022-10-28T01:48:00;57787.29;;;-145.38;83.23
61939;BME280;47897;50.322;18.892;2022-10-28T01:50:36;57755.42;;;-145.38;83.05
61939;BME280;47897;50.322;18.892;2022-10-28T01:53:11;57779.21;;;-145.38;83.06
61939;BME280;47897;50.322;18.892;2022-10-28T01:55:41;57780.49;;;-145.38;83.12
61939;BME280;47897;50.322;18.892;2022-10-28T01:58:09;57789.84;;;-145.38;83.01
61939;BME280;47897;50.322;18.892;2022-10-28T02:00:37;57794.09;;;-145.38;82.94
61939;BME280;47897;50.322;18.892;2022-10-28T02:03:08;57782.61;;;-145.38;82.92
61939;BME280;47897;50.322;18.892;2022-10-28T02:05:48;57771.99;;;-145.38;82.83
61939;BME280;47897;50.322;18.892;2022-10-28T02:13:38;57782.61;;;-145.38;82.73
61939;BME280;47897;50.322;18.892;2022-10-28T02:16:29;57779.21;;;-145.38;82.95
61939;BME280;47897;50.322;18.892;2022-10-28T02:21:58;57786.86;;;-145.38;83.14
61939;BME280;47897;50.322;18.892;2022-10-28T02:25:03;57781.76;;;-145.38;83.95
61939;BME280;47897;50.322;18.892;2022-10-28T02:30:07;57809.80;;;-145.38;84.90
61939;BME280;47897;50.322;18.892;2022-10-28T02:32:41;57784.74;;;-145.38;85.12
61939;BME280;47897;50.322;18.892;2022-10-28T02:35:34;57802.58;;;-145.38;85.33
61939;BME280;47897;50.322;18.892;2022-10-28T02:38:06;57790.26;;;-145.38;85.60
61939;BME280;47897;50.322;18.892;2022-10-28T02:40:36;57788.99;;;-145.38;85.67
61939;BME280;47897;50.322;18.892;2022-10-28T02:43:06;57766.89;;;-145.38;85.69
61939;BME280;47897;50.322;18.892;2022-10-28T02:45:44;57797.06;;;-145.38;85.57
61939;BME280;47897;50.322;18.892;2022-10-28T02:48:35;57805.55;;;-145.38;85.54
61939;BME280;47897;50.322;18.892;2022-10-28T02:51:29;57775.81;;;-145.38;85.68
61939;BME280;47897;50.322;18.892;2022-10-28T02:54:04;57784.31;;;-145.38;85.64
61939;BME280;47897;50.322;18.892;2022-10-28T02:59:29;57769.44;;;-145.38;85.67
61939;BME280;47897;50.322;18.892;2022-10-28T03:01:55;57782.61;;;-145.38;85.69
61939;BME280;47897;50.322;18.892;2022-10-28T03:04:21;57795.79;;;-145.38;85.80
61939;BME280;47897;50.322;18.892;2022-10-28T03:06:46;57797.49;;;-145.38;85.72
61939;BME280;47897;50.322;18.892;2022-10-28T03:09:12;57795.36;;;-145.38;85.72
61939;BME280;47897;50.322;18.892;2022-10-28T03:11:38;57787.71;;;-145.38;85.84
61939;BME280;47897;50.322;18.892;2022-10-28T03:14:03;57790.69;;;-145.38;85.81
61939;BME280;47897;50.322;18.892;2022-10-28T03:16:29;57776.24;;;-145.38;85.77
61939;BME280;47897;50.322;18.892;2022-10-28T03:18:55;57799.61;;;-145.38;85.73
61939;BME280;47897;50.322;18.892;2022-10-28T03:21:21;57791.11;;;-145.38;85.75
61939;BME280;47897;50.322;18.892;2022-10-28T03:23:46;57805.14;;;-145.38;85.70
61939;BME280;47897;50.322;18.892;2022-10-28T03:26:12;57784.31;;;-145.38;85.59
61939;BME280;47897;50.322;18.892;2022-10-28T03:28:38;57815.76;;;-145.38;85.01
61939;BME280;47897;50.322;18.892;2022-10-28T03:31:04;57785.16;;;-145.38;83.96
61939;BME280;47897;50.322;18.892;2022-10-28T03:33:29;57778.36;;;-145.38;83.87
61939;BME280;47897;50.322;18.892;2022-10-28T03:35:55;57774.96;;;-145.38;84.05
61939;BME280;47897;50.322;18.892;2022-10-28T03:38:21;57780.06;;;-145.38;83.75
61939;BME280;47897;50.322;18.892;2022-10-28T03:40:47;57790.26;;;-145.38;83.72
61939;BME280;47897;50.322;18.892;2022-10-28T03:43:13;57776.66;;;-145.38;83.76
61939;BME280;47897;50.322;18.892;2022-10-28T03:45:39;57775.81;;;-145.38;83.78
61939;BME280;47897;50.322;18.892;2022-10-28T03:48:05;57786.44;;;-145.38;83.93
61939;BME280;47897;50.322;18.892;2022-10-28T03:50:31;57773.69;;;-145.38;83.85
61939;BME280;47897;50.322;18.892;2022-10-28T03:52:57;57786.86;;;-145.38;83.45
61939;BME280;47897;50.322;18.892;2022-10-28T03:55:23;57784.31;;;-145.38;83.41
61939;BME280;47897;50.322;18.892;2022-10-28T03:57:51;57795.79;;;-145.38;83.70
61939;BME280;47897;50.322;18.892;2022-10-28T04:00:17;57801.31;;;-145.38;83.76
61939;BME280;47897;50.322;18.892;2022-10-28T04:02:48;57780.06;;;-145.38;83.23
61939;BME280;47897;50.322;18.892;2022-10-28T04:05:14;57788.56;;;-145.38;83.14
61939;BME280;47897;50.322;18.892;2022-10-28T04:07:39;57786.01;;;-145.38;83.44
61939;BME280;47897;50.322;18.892;2022-10-28T04:10:05;57785.59;;;-145.38;83.54
61939;BME280;47897;50.322;18.892;2022-10-28T04:12:31;57775.39;;;-145.38;83.66
61939;BME280;47897;50.322;18.892;2022-10-28T04:14:56;57782.61;;;-145.38;83.46
61939;BME280;47897;50.322;18.892;2022-10-28T04:17:22;57792.39;;;-145.38;83.52
61939;BME280;47897;50.322;18.892;2022-10-28T04:19:48;57790.26;;;-145.38;83.53
61939;BME280;47897;50.322;18.892;2022-10-28T04:22:13;57774.96;;;-145.38;83.59
61939;BME280;47897;50.322;18.892;2022-10-28T04:24:39;57775.39;;;-145.38;83.67
61939;BME280;47897;50.322;18.892;2022-10-28T04:27:05;57792.81;;;-145.38;83.58
61939;BME280;47897;50.322;18.892;2022-10-28T04:29:30;57795.36;;;-145.38;83.33
61939;BME280;47897;50.322;18.892;2022-10-28T04:31:56;57776.66;;;-145.38;83.42
61939;BME280;47897;50.322;18.892;2022-10-28T04:34:22;57783.46;;;-145.38;83.26
61939;BME280;47897;50.322;18.892;2022-10-28T04:36:47;57778.36;;;-145.38;83.40
61939;BME280;47897;50.322;18.892;2022-10-28T04:39:13;57771.99;;;-145.38;83.11
61939;BME280;47897;50.322;18.892;2022-10-28T04:41:39;57769.44;;;-145.38;83.03
61939;BME280;47897;50.322;18.892;2022-10-28T04:44:04;57783.04;;;-145.38;83.15
61939;BME280;47897;50.322;18.892;2022-10-28T04:46:30;57772.41;;;-145.38;83.31
61939;BME280;47897;50.322;18.892;2022-10-28T04:48:55;57778.79;;;-145.38;83.44
61939;BME280;47897;50.322;18.892;2022-10-28T04:51:21;57786.86;;;-145.38;83.31
61939;BME280;47897;50.322;18.892;2022-10-28T04:53:47;57779.64;;;-145.38;83.52
61939;BME280;47897;50.322;18.892;2022-10-28T04:56:12;57772.42;;;-145.38;83.79
61939;BME280;47897;50.322;18.892;2022-10-28T04:58:38;57771.56;;;-145.38;84.10
61939;BME280;47897;50.322;18.892;2022-10-28T05:01:08;57784.31;;;-145.38;84.57
61939;BME280;47897;50.322;18.892;2022-10-28T05:03:34;57768.59;;;-145.38;85.05
61939;BME280;47897;50.322;18.892;2022-10-28T05:06:01;57785.16;;;-145.38;85.39
61939;BME280;47897;50.322;18.892;2022-10-28T05:08:27;57787.28;;;-145.38;85.80
61939;BME280;47897;50.322;18.892;2022-10-28T05:10:53;57783.89;;;-145.38;86.26
61939;BME280;47897;50.322;18.892;2022-10-28T05:13:19;57763.49;;;-145.38;86.53
61939;BME280;47897;50.322;18.892;2022-10-28T05:15:47;57802.16;;;-145.38;86.71
61939;BME280;47897;50.322;18.892;2022-10-28T05:18:13;57776.66;;;-145.38;87.24
61939;BME280;47897;50.322;18.892;2022-10-28T05:20:38;57805.99;;;-145.38;87.60
61939;BME280;47897;50.322;18.892;2022-10-28T05:23:04;57794.09;;;-145.38;87.96
61939;BME280;47897;50.322;18.892;2022-10-28T05:25:30;57790.26;;;-145.38;88.10
61939;BME280;47897;50.322;18.892;2022-10-28T05:27:58;57810.24;;;-145.38;87.81
61939;BME280;47897;50.322;18.892;2022-10-28T05:30:27;57805.14;;;-145.38;87.69
61939;BME280;47897;50.322;18.892;2022-10-28T05:33:00;57791.96;;;-145.38;87.58
61939;BME280;47897;50.322;18.892;2022-10-28T05:35:27;57818.30;;;-145.38;87.51
61939;BME280;47897;50.322;18.892;2022-10-28T05:37:53;57789.41;;;-145.38;87.15
61939;BME280;47897;50.322;18.892;2022-10-28T05:40:18;57796.21;;;-145.38;86.98
61939;BME280;47897;50.322;18.892;2022-10-28T05:42:44;57787.29;;;-145.38;87.15
61939;BME280;47897;50.322;18.892;2022-10-28T05:45:10;57794.09;;;-145.38;87.55
61939;BME280;47897;50.322;18.892;2022-10-28T05:47:44;57788.99;;;-145.38;87.84
61939;BME280;47897;50.322;18.892;2022-10-28T05:50:11;57820.01;;;-145.38;88.35
61939;BME280;47897;50.322;18.892;2022-10-28T05:52:37;57797.91;;;-145.38;88.71
61939;BME280;47897;50.322;18.892;2022-10-28T05:55:04;57798.34;;;-145.38;89.06
61939;BME280;47897;50.322;18.892;2022-10-28T05:57:33;57813.21;;;-145.38;89.20
61939;BME280;47897;50.322;18.892;2022-10-28T05:59:59;57811.09;;;-145.38;89.20
61939;BME280;47897;50.322;18.892;2022-10-28T06:02:25;57817.46;;;-145.38;89.24
61939;BME280;47897;50.322;18.892;2022-10-28T06:04:51;57808.96;;;-145.38;89.12
61939;BME280;47897;50.322;18.892;2022-10-28T06:07:16;57814.91;;;-145.38;88.93
61939;BME280;47897;50.322;18.892;2022-10-28T06:09:42;57809.39;;;-145.38;88.93
61939;BME280;47897;50.322;18.892;2022-10-28T06:12:08;57810.23;;;-145.38;88.98
61939;BME280;47897;50.322;18.892;2022-10-28T06:14:34;57827.23;;;-145.38;88.71
61939;BME280;47897;50.322;18.892;2022-10-28T06:16:59;57795.36;;;-145.38;88.60
61939;BME280;47897;50.322;18.892;2022-10-28T06:19:25;57816.61;;;-145.38;88.67
61939;BME280;47897;50.322;18.892;2022-10-28T06:21:51;57798.34;;;-145.38;88.32
61939;BME280;47897;50.322;18.892;2022-10-28T06:24:16;57824.26;;;-145.38;88.31
61939;BME280;47897;50.322;18.892;2022-10-28T06:26:42;57794.51;;;-145.38;88.29
61939;BME280;47897;50.322;18.892;2022-10-28T06:29:11;57814.05;;;-145.38;88.11
61939;BME280;47897;50.322;18.892;2022-10-28T06:31:41;57808.54;;;-145.38;88.07
61939;BME280;47897;50.322;18.892;2022-10-28T06:34:10;57817.03;;;-145.38;87.99
61939;BME280;47897;50.322;18.892;2022-10-28T06:36:36;57814.49;;;-145.38;88.00
61939;BME280;47897;50.322;18.892;2022-10-28T06:39:03;57814.48;;;-145.38;88.06
61939;BME280;47897;50.322;18.892;2022-10-28T06:41:29;57830.21;;;-145.38;87.95
61939;BME280;47897;50.322;18.892;2022-10-28T06:43:55;57811.51;;;-145.38;88.13
61939;BME280;47897;50.322;18.892;2022-10-28T06:46:21;57814.48;;;-145.38;88.17
61939;BME280;47897;50.322;18.892;2022-10-28T06:48:47;57810.66;;;-145.38;87.98
61939;BME280;47897;50.322;18.892;2022-10-28T06:51:13;57809.39;;;-145.38;88.02
61939;BME280;47897;50.322;18.892;2022-10-28T06:53:41;57803.86;;;-145.38;87.88
61939;BME280;47897;50.322;18.892;2022-10-28T06:56:08;57818.30;;;-145.38;87.74
61939;BME280;47897;50.322;18.892;2022-10-28T06:58:34;57811.51;;;-145.38;87.65
61939;BME280;47897;50.322;18.892;2022-10-28T07:01:04;57807.26;;;-145.38;87.62
61939;BME280;47897;50.322;18.892;2022-10-28T07:03:30;57798.76;;;-145.38;87.46
61939;BME280;47897;50.322;18.892;2022-10-28T07:05:58;57810.23;;;-145.38;87.49
61939;BME280;47897;50.322;18.892;2022-10-28T07:08:25;57821.71;;;-145.38;87.29
61939;BME280;47897;50.322;18.892;2022-10-28T07:10:58;57805.13;;;-145.38;87.20
61939;BME280;47897;50.322;18.892;2022-10-28T07:13:25;57797.91;;;-145.38;86.82
61939;BME280;47897;50.322;18.892;2022-10-28T07:15:56;57803.86;;;-145.38;86.62
61939;BME280;47897;50.322;18.892;2022-10-28T07:18:23;57791.54;;;-145.38;86.39
61939;BME280;47897;50.322;18.892;2022-10-28T07:20:49;57803.44;;;-145.38;86.19
61939;BME280;47897;50.322;18.892;2022-10-28T07:23:14;57797.06;;;-145.38;85.79
61939;BME280;47897;50.322;18.892;2022-10-28T07:25:40;57813.63;;;-145.38;85.86
61939;BME280;47897;50.322;18.892;2022-10-28T07:28:06;57803.86;;;-145.38;85.88
61939;BME280;47897;50.322;18.892;2022-10-28T07:30:32;57797.91;;;-145.38;85.45
61939;BME280;47897;50.322;18.892;2022-10-28T07:32:58;57789.84;;;-145.38;85.15
61939;BME280;47897;50.322;18.892;2022-10-28T07:35:26;57809.38;;;-145.38;84.67
61939;BME280;47897;50.322;18.892;2022-10-28T07:37:53;57817.88;;;-145.38;84.27
61939;BME280;47897;50.322;18.892;2022-10-28T07:40:19;57816.18;;;-145.38;84.30
61939;BME280;47897;50.322;18.892;2022-10-28T07:42:45;57803.44;;;-145.38;84.28
61939;BME280;47897;50.322;18.892;2022-10-28T07:45:11;57804.29;;;-145.38;84.31
61939;BME280;47897;50.322;18.892;2022-10-28T07:47:37;57803.43;;;-145.38;84.00
61939;BME280;47897;50.322;18.892;2022-10-28T07:50:05;57797.06;;;-145.38;83.77
61939;BME280;47897;50.322;18.892;2022-10-28T07:52:33;57810.23;;;-145.38;83.06
61939;BME280;47897;50.322;18.892;2022-10-28T07:54:58;57796.21;;;-145.38;82.79
61939;BME280;47897;50.322;18.892;2022-10-28T07:57:24;57804.71;;;-145.38;82.56
61939;BME280;47897;50.322;18.892;2022-10-28T07:59:50;57801.31;;;-145.38;82.67
61939;BME280;47897;50.322;18.892;2022-10-28T08:02:23;57793.66;;;-145.38;82.84
61939;BME280;47897;50.322;18.892;2022-10-28T08:04:49;57814.49;;;-145.38;82.35
61939;BME280;47897;50.322;18.892;2022-10-28T08:07:16;57784.31;;;-145.38;81.79
61939;BME280;47897;50.322;18.892;2022-10-28T08:09:42;57791.96;;;-145.38;81.25
61939;BME280;47897;50.322;18.892;2022-10-28T08:12:08;57794.09;;;-145.38;81.11
61939;BME280;47897;50.322;18.892;2022-10-28T08:14:37;57806.41;;;-145.38;80.97
61939;BME280;47897;50.322;18.892;2022-10-28T08:17:02;57816.61;;;-145.38;80.84
61939;BME280;47897;50.322;18.892;2022-10-28T08:19:28;57803.86;;;-145.38;80.62
61939;BME280;47897;50.322;18.892;2022-10-28T08:21:54;57808.96;;;-145.38;80.26
61939;BME280;47897;50.322;18.892;2022-10-28T08:24:20;57815.33;;;-145.38;79.42
61939;BME280;47897;50.322;18.892;2022-10-28T08:26:45;57797.06;;;-145.38;79.86
61939;BME280;47897;50.322;18.892;2022-10-28T08:29:11;57812.36;;;-145.38;79.34
61939;BME280;47897;50.322;18.892;2022-10-28T08:31:38;57805.56;;;-145.38;79.01
61939;BME280;47897;50.322;18.892;2022-10-28T08:34:04;57809.80;;;-145.38;79.05
61939;BME280;47897;50.322;18.892;2022-10-28T08:36:31;57804.71;;;-145.38;79.11
61939;BME280;47897;50.322;18.892;2022-10-28T08:38:58;57804.29;;;-145.38;78.77
61939;BME280;47897;50.322;18.892;2022-10-28T08:41:55;57784.31;;;-145.38;77.64
61939;BME280;47897;50.322;18.892;2022-10-28T08:49:41;57797.49;;;-145.38;77.14
61939;BME280;47897;50.322;18.892;2022-10-28T08:55:04;57780.91;;;-145.38;77.19
61939;BME280;47897;50.322;18.892;2022-10-28T08:57:38;57805.98;;;-145.38;76.65
61939;BME280;47897;50.322;18.892;2022-10-28T09:00:07;57769.86;;;-145.38;77.02
61939;BME280;47897;50.322;18.892;2022-10-28T09:05:43;57810.66;;;-145.38;75.46
61939;BME280;47897;50.322;18.892;2022-10-28T09:08:32;57787.71;;;-145.38;75.43
61939;BME280;47897;50.322;18.892;2022-10-28T09:19:19;57791.96;;;-145.38;74.26
61939;BME280;47897;50.322;18.892;2022-10-28T09:25:03;57802.59;;;-145.38;73.69
61939;BME280;47897;50.322;18.892;2022-10-28T09:28:23;57803.43;;;-145.38;73.82
61939;BME280;47897;50.322;18.892;2022-10-28T09:36:31;57794.51;;;-145.38;72.39
61939;BME280;47897;50.322;18.892;2022-10-28T09:39:00;57774.11;;;-145.38;72.81
61939;BME280;47897;50.322;18.892;2022-10-28T09:41:31;57803.01;;;-145.38;72.91
61939;BME280;47897;50.322;18.892;2022-10-28T09:46:37;57795.79;;;-145.38;71.82
61939;BME280;47897;50.322;18.892;2022-10-28T09:49:17;57785.59;;;-145.38;70.61
61939;BME280;47897;50.322;18.892;2022-10-28T09:54:34;57779.21;;;-145.38;70.63
61939;BME280;47897;50.322;18.892;2022-10-28T09:57:02;57802.16;;;-145.38;71.01
61939;BME280;47897;50.322;18.892;2022-10-28T09:59:29;57792.38;;;-145.38;70.78
61939;BME280;47897;50.322;18.892;2022-10-28T10:01:55;57784.74;;;-145.38;70.76
61939;BME280;47897;50.322;18.892;2022-10-28T10:04:25;57776.24;;;-145.38;70.11
61939;BME280;47897;50.322;18.892;2022-10-28T10:06:57;57764.76;;;-145.38;70.22
61939;BME280;47897;50.322;18.892;2022-10-28T10:09:29;57796.21;;;-145.38;69.83
61939;BME280;47897;50.322;18.892;2022-10-28T10:12:13;57789.84;;;-145.38;70.34
61939;BME280;47897;50.322;18.892;2022-10-28T10:14:46;57777.09;;;-145.38;70.05
61939;BME280;47897;50.322;18.892;2022-10-28T10:17:17;57797.06;;;-145.38;69.49
61939;BME280;47897;50.322;18.892;2022-10-28T10:20:06;57772.41;;;-145.38;69.00
61939;BME280;47897;50.322;18.892;2022-10-28T10:27:58;57787.71;;;-145.38;68.40
61939;BME280;47897;50.322;18.892;2022-10-28T10:30:46;57776.66;;;-145.38;67.55
61939;BME280;47897;50.322;18.892;2022-10-28T10:33:37;57787.29;;;-145.38;67.57
61939;BME280;47897;50.322;18.892;2022-10-28T10:36:24;57783.04;;;-145.38;68.44
61939;BME280;47897;50.322;18.892;2022-10-28T10:38:57;57777.09;;;-145.38;67.95
61939;BME280;47897;50.322;18.892;2022-10-28T10:41:43;57788.99;;;-145.38;68.03
61939;BME280;47897;50.322;18.892;2022-10-28T10:49:49;57774.54;;;-145.38;67.36
61939;BME280;47897;50.322;18.892;2022-10-28T10:52:19;57787.71;;;-145.38;67.50
61939;BME280;47897;50.322;18.892;2022-10-28T10:55:18;57771.57;;;-145.38;66.23
61939;BME280;47897;50.322;18.892;2022-10-28T10:57:45;57774.12;;;-145.38;66.15
61939;BME280;47897;50.322;18.892;2022-10-28T11:00:34;57784.74;;;-145.38;64.65
61939;BME280;47897;50.322;18.892;2022-10-28T11:03:01;57780.91;;;-145.38;65.30
61939;BME280;47897;50.322;18.892;2022-10-28T11:05:28;57778.36;;;-145.38;65.69
61939;BME280;47897;50.322;18.892;2022-10-28T11:07:56;57759.24;;;-145.38;66.11
61939;BME280;47897;50.322;18.892;2022-10-28T11:10:28;57770.71;;;-145.38;66.17
61939;BME280;47897;50.322;18.892;2022-10-28T11:12:57;57782.61;;;-145.38;65.60
61939;BME280;47897;50.322;18.892;2022-10-28T11:15:29;57780.06;;;-145.38;65.07
61939;BME280;47897;50.322;18.892;2022-10-28T11:17:58;57769.86;;;-145.38;64.69
61939;BME280;47897;50.322;18.892;2022-10-28T11:21:07;57783.89;;;-145.38;64.87
61939;BME280;47897;50.322;18.892;2022-10-28T11:23:42;57755.84;;;-145.38;65.32
61939;BME280;47897;50.322;18.892;2022-10-28T11:26:12;57779.64;;;-145.38;65.38
61939;BME280;47897;50.322;18.892;2022-10-28T11:45:35;57782.19;;;-145.38;64.88
61939;BME280;47897;50.322;18.892;2022-10-28T11:51:23;57771.56;;;-145.38;64.61
61939;BME280;47897;50.322;18.892;2022-10-28T11:57:09;57787.29;;;-145.38;64.64
61939;BME280;47897;50.322;18.892;2022-10-28T12:00:23;57799.61;;;-145.38;64.62
61939;BME280;47897;50.322;18.892;2022-10-28T12:06:03;57793.23;;;-145.38;65.23
61939;BME280;47897;50.322;18.892;2022-10-28T12:11:56;57779.21;;;-145.38;64.93
61939;BME280;47897;50.322;18.892;2022-10-28T12:17:24;57763.07;;;-145.38;64.96
61939;BME280;47897;50.322;18.892;2022-10-28T12:19:57;57781.76;;;-145.38;64.23
61939;BME280;47897;50.322;18.892;2022-10-28T12:22:26;57782.61;;;-145.38;64.73
61939;BME280;47897;50.322;18.892;2022-10-28T12:24:53;57780.49;;;-145.38;64.89
61939;BME280;47897;50.322;18.892;2022-10-28T12:27:32;57772.84;;;-145.38;64.94
61939;BME280;47897;50.322;18.892;2022-10-28T12:32:39;57774.96;;;-145.38;64.05
61939;BME280;47897;50.322;18.892;2022-10-28T12:35:20;57769.86;;;-145.38;64.33
61939;BME280;47897;50.322;18.892;2022-10-28T12:38:24;57767.74;;;-145.38;64.63
61939;BME280;47897;50.322;18.892;2022-10-28T12:41:26;57780.49;;;-145.38;65.20
61939;BME280;47897;50.322;18.892;2022-10-28T12:44:06;57781.34;;;-145.38;65.15
61939;BME280;47897;50.322;18.892;2022-10-28T12:47:03;57780.06;;;-145.38;64.37
61939;BME280;47897;50.322;18.892;2022-10-28T12:52:45;57773.26;;;-145.38;64.79
61939;BME280;47897;50.322;18.892;2022-10-28T12:55:40;57791.11;;;-145.38;64.65
61939;BME280;47897;50.322;18.892;2022-10-28T12:58:53;57770.71;;;-145.38;64.85
61939;BME280;47897;50.322;18.892;2022-10-28T13:01:44;57780.06;;;-145.38;64.73
61939;BME280;47897;50.322;18.892;2022-10-28T13:04:30;57774.96;;;-145.38;64.72
61939;BME280;47897;50.322;18.892;2022-10-28T13:13:02;57771.56;;;-145.38;64.59
61939;BME280;47897;50.322;18.892;2022-10-28T13:27:34;57783.04;;;-145.38;64.58
61939;BME280;47897;50.322;18.892;2022-10-28T13:30:00;57775.81;;;-145.38;64.47
61939;BME280;47897;50.322;18.892;2022-10-28T13:32:38;57785.16;;;-145.38;64.19
61939;BME280;47897;50.322;18.892;2022-10-28T13:35:22;57776.24;;;-145.38;64.05
61939;BME280;47897;50.322;18.892;2022-10-28T13:38:12;57781.34;;;-145.38;64.06
61939;BME280;47897;50.322;18.892;2022-10-28T13:49:36;57774.96;;;-145.38;64.16
61939;BME280;47897;50.322;18.892;2022-10-28T13:52:18;57787.28;;;-145.38;64.36
61939;BME280;47897;50.322;18.892;2022-10-28T14:00:02;57781.76;;;-145.38;64.70
61939;BME280;47897;50.322;18.892;2022-10-28T14:02:46;57760.51;;;-145.38;64.69
61939;BME280;47897;50.322;18.892;2022-10-28T14:08:46;57770.71;;;-145.38;64.74
61939;BME280;47897;50.322;18.892;2022-10-28T14:11:11;57770.29;;;-145.38;65.04
61939;BME280;47897;50.322;18.892;2022-10-28T14:14:01;57782.61;;;-145.38;65.24
61939;BME280;47897;50.322;18.892;2022-10-28T14:16:37;57785.16;;;-145.38;65.23
61939;BME280;47897;50.322;18.892;2022-10-28T14:22:04;57773.26;;;-145.38;65.47
61939;BME280;47897;50.322;18.892;2022-10-28T14:24:33;57763.91;;;-145.38;65.63
61939;BME280;47897;50.322;18.892;2022-10-28T14:27:25;57773.26;;;-145.38;65.69
61939;BME280;47897;50.322;18.892;2022-10-28T14:35:04;57786.44;;;-145.38;65.40
61939;BME280;47897;50.322;18.892;2022-10-28T14:40:43;57784.31;;;-145.38;65.46
61939;BME280;47897;50.322;18.892;2022-10-28T14:46:24;57780.91;;;-145.38;65.46
61939;BME280;47897;50.322;18.892;2022-10-28T14:49:26;57787.29;;;-145.38;65.77
61939;BME280;47897;50.322;18.892;2022-10-28T14:51:54;57791.96;;;-145.38;65.95
61939;BME280;47897;50.322;18.892;2022-10-28T14:54:33;57772.41;;;-145.38;65.92
61939;BME280;47897;50.322;18.892;2022-10-28T14:57:03;57782.19;;;-145.38;66.18
61939;BME280;47897;50.322;18.892;2022-10-28T14:59:40;57794.94;;;-145.38;66.24
61939;BME280;47897;50.322;18.892;2022-10-28T15:02:15;57777.51;;;-145.38;66.46
61939;BME280;47897;50.322;18.892;2022-10-28T15:04:44;57782.19;;;-145.38;66.61
61939;BME280;47897;50.322;18.892;2022-10-28T15:07:14;57776.24;;;-145.38;66.68
61939;BME280;47897;50.322;18.892;2022-10-28T15:09:59;57783.89;;;-145.38;66.63
61939;BME280;47897;50.322;18.892;2022-10-28T15:12:45;57777.09;;;-145.38;66.63
61939;BME280;47897;50.322;18.892;2022-10-28T15:15:19;57777.09;;;-145.38;66.75
61939;BME280;47897;50.322;18.892;2022-10-28T15:17:45;57798.76;;;-145.38;66.88
61939;BME280;47897;50.322;18.892;2022-10-28T15:22:49;57757.11;;;-145.38;67.01
61939;BME280;47897;50.322;18.892;2022-10-28T15:25:17;57782.61;;;-145.38;67.18
61939;BME280;47897;50.322;18.892;2022-10-28T15:27:45;57797.91;;;-145.38;67.27
61939;BME280;47897;50.322;18.892;2022-10-28T15:30:14;57768.59;;;-145.38;67.41
61939;BME280;47897;50.322;18.892;2022-10-28T15:32:41;57778.36;;;-145.38;67.54
61939;BME280;47897;50.322;18.892;2022-10-28T15:37:55;57773.69;;;-145.38;67.54
61939;BME280;47897;50.322;18.892;2022-10-28T15:40:30;57783.89;;;-145.38;67.51
61939;BME280;47897;50.322;18.892;2022-10-28T15:43:02;57775.81;;;-145.38;67.51
61939;BME280;47897;50.322;18.892;2022-10-28T15:45:30;57775.81;;;-145.38;67.62
61939;BME280;47897;50.322;18.892;2022-10-28T15:47:58;57784.74;;;-145.38;67.73
61939;BME280;47897;50.322;18.892;2022-10-28T15:50:44;57769.87;;;-145.38;67.94
61939;BME280;47897;50.322;18.892;2022-10-28T15:55:36;57787.29;;;-145.38;68.13